sensor_id;sensor_type;location;lat;lon;timestamp;pressure;altitude;pressure_sealevel;temperature;humidity
37066;BME280;22981;43.080;25.550;2023-03-13T00:01:25;100012.34;;;6.07;51.76
37066;BME280;22981;43.080;25.550;2023-03-13T00:03:53;100014.52;;;6.03;51.82
37066;BME280;22981;43.080;25.550;2023-03-13T00:06:23;100018.70;;;6.01;51.85
37066;BME280;22981;43.080;25.550;2023-03-13T00:08:52;100025.39;;;5.93;51.96
37066;BME280;22981;43.080;25.550;2023-03-13T00:11:20;100023.00;;;5.71;52.54
37066;BME280;22981;43.080;25.550;2023-03-13T00:13:48;100022.57;;;5.56;53.09
37066;BME280;22981;43.080;25.550;2023-03-13T00:16:17;100023.26;;;5.53;53.42
37066;BME280;22981;43.080;25.550;2023-03-13T00:18:46;100028.06;;;5.54;53.63
37066;BME280;22981;43.080;25.550;2023-03-13T00:21:14;100022.89;;;5.57;53.74
37066;BME280;22981;43.080;25.550;2023-03-13T00:23:42;100031.55;;;5.55;53.85
37066;BME280;22981;43.080;25.550;2023-03-13T00:26:13;100029.41;;;5.50;54.02
37066;BME280;22981;43.080;25.550;2023-03-13T00:28:41;100024.10;;;5.50;54.11
37066;BME280;22981;43.080;25.550;2023-03-13T00:31:18;100022.10;;;5.48;54.15
37066;BME280;22981;43.080;25.550;2023-03-13T00:33:47;100031.26;;;5.45;54.25
37066;BME280;22981;43.080;25.550;2023-03-13T00:36:18;100033.93;;;5.41;54.28
37066;BME280;22981;43.080;25.550;2023-03-13T00:38:46;100037.93;;;5.37;54.38
37066;BME280;22981;43.080;25.550;2023-03-13T00:41:17;100036.11;;;5.34;54.45
37066;BME280;22981;43.080;25.550;2023-03-13T00:43:45;100037.45;;;5.30;54.53
37066;BME280;22981;43.080;25.550;2023-03-13T00:46:14;100042.27;;;5.26;54.58
37066;BME280;22981;43.080;25.550;2023-03-13T00:48:43;100039.16;;;5.22;54.63
37066;BME280;22981;43.080;25.550;2023-03-13T00:51:10;100036.98;;;5.18;54.60
37066;BME280;22981;43.080;25.550;2023-03-13T00:53:38;100035.52;;;5.11;54.75
37066;BME280;22981;43.080;25.550;2023-03-13T00:56:11;100030.89;;;5.01;55.04
37066;BME280;22981;43.080;25.550;2023-03-13T00:58:41;100031.91;;;4.96;55.17
37066;BME280;22981;43.080;25.550;2023-03-13T01:03:45;100025.46;;;4.86;55.46
37066;BME280;22981;43.080;25.550;2023-03-13T01:06:15;100028.30;;;4.81;55.49
37066;BME280;22981;43.080;25.550;2023-03-13T01:08:43;100031.97;;;4.75;55.64
37066;BME280;22981;43.080;25.550;2023-03-13T01:11:14;100033.30;;;4.71;55.67
37066;BME280;22981;43.080;25.550;2023-03-13T01:13:42;100041.08;;;4.69;55.70
37066;BME280;22981;43.080;25.550;2023-03-13T01:16:12;100036.77;;;4.64;55.68
37066;BME280;22981;43.080;25.550;2023-03-13T01:18:42;100044.23;;;4.60;55.74
37066;BME280;22981;43.080;25.550;2023-03-13T01:21:11;100045.73;;;4.55;55.71
37066;BME280;22981;43.080;25.550;2023-03-13T01:23:38;100047.70;;;4.48;55.70
37066;BME280;22981;43.080;25.550;2023-03-13T01:26:07;100045.55;;;4.44;55.68
37066;BME280;22981;43.080;25.550;2023-03-13T01:28:35;100047.20;;;4.41;55.64
37066;BME280;22981;43.080;25.550;2023-03-13T01:31:18;100056.16;;;4.36;55.78
37066;BME280;22981;43.080;25.550;2023-03-13T01:33:47;100056.33;;;4.34;55.85
37066;BME280;22981;43.080;25.550;2023-03-13T01:36:16;100057.33;;;4.29;55.85
37066;BME280;22981;43.080;25.550;2023-03-13T01:38:49;100050.19;;;4.17;56.00
37066;BME280;22981;43.080;25.550;2023-03-13T01:41:19;100057.95;;;4.11;56.22
37066;BME280;22981;43.080;25.550;2023-03-13T01:43:47;100051.31;;;4.07;56.29
37066;BME280;22981;43.080;25.550;2023-03-13T01:46:17;100007.70;;;3.72;56.37
37066;BME280;22981;43.080;25.550;2023-03-13T01:54:02;100078.46;;;3.96;56.58
37066;BME280;22981;43.080;25.550;2023-03-13T01:57:13;100082.42;;;3.92;56.57
37066;BME280;22981;43.080;25.550;2023-03-13T01:59:02;100084.41;;;3.86;56.58
37066;BME280;22981;43.080;25.550;2023-03-13T02:01:31;100084.89;;;3.82;56.64
37066;BME280;22981;43.080;25.550;2023-03-13T02:03:59;100089.50;;;3.80;56.68
37066;BME280;22981;43.080;25.550;2023-03-13T02:06:30;100093.30;;;3.73;56.63
37066;BME280;22981;43.080;25.550;2023-03-13T02:09:04;100103.88;;;3.69;56.54
37066;BME280;22981;43.080;25.550;2023-03-13T02:14:20;100093.54;;;3.54;56.78
37066;BME280;22981;43.080;25.550;2023-03-13T02:16:49;100097.32;;;3.51;56.79
37066;BME280;22981;43.080;25.550;2023-03-13T02:19:23;100096.66;;;3.49;56.79
37066;BME280;22981;43.080;25.550;2023-03-13T02:22:12;100104.27;;;3.48;56.79
37066;BME280;22981;43.080;25.550;2023-03-13T02:24:45;100108.88;;;3.46;56.76
37066;BME280;22981;43.080;25.550;2023-03-13T02:27:11;100111.87;;;3.43;56.63
37066;BME280;22981;43.080;25.550;2023-03-13T02:29:38;100122.56;;;3.37;56.64
37066;BME280;22981;43.080;25.550;2023-03-13T02:32:07;100120.84;;;3.24;56.74
37066;BME280;22981;43.080;25.550;2023-03-13T02:34:37;100125.75;;;3.15;56.86
37066;BME280;22981;43.080;25.550;2023-03-13T02:37:06;100120.92;;;3.10;56.94
37066;BME280;22981;43.080;25.550;2023-03-13T02:39:43;100124.37;;;3.07;57.07
37066;BME280;22981;43.080;25.550;2023-03-13T02:42:17;100122.22;;;3.06;57.12
37066;BME280;22981;43.080;25.550;2023-03-13T02:44:41;100130.16;;;3.06;57.09
37066;BME280;22981;43.080;25.550;2023-03-13T02:47:10;100121.56;;;3.04;57.14
37066;BME280;22981;43.080;25.550;2023-03-13T02:49:37;100120.04;;;3.01;57.13
37066;BME280;22981;43.080;25.550;2023-03-13T02:52:20;100135.58;;;3.00;57.20
37066;BME280;22981;43.080;25.550;2023-03-13T02:54:51;100145.17;;;3.01;57.24
37066;BME280;22981;43.080;25.550;2023-03-13T02:57:19;100136.38;;;2.97;57.20
37066;BME280;22981;43.080;25.550;2023-03-13T02:59:47;100136.94;;;2.83;57.53
37066;BME280;22981;43.080;25.550;2023-03-13T03:02:14;100144.93;;;2.73;57.94
37066;BME280;22981;43.080;25.550;2023-03-13T03:04:42;100147.41;;;2.70;58.16
37066;BME280;22981;43.080;25.550;2023-03-13T03:07:09;100148.86;;;2.69;58.34
37066;BME280;22981;43.080;25.550;2023-03-13T03:09:37;100155.63;;;2.67;58.51
37066;BME280;22981;43.080;25.550;2023-03-13T03:12:05;100152.33;;;2.69;58.54
37066;BME280;22981;43.080;25.550;2023-03-13T03:14:33;100163.27;;;2.70;58.58
37066;BME280;22981;43.080;25.550;2023-03-13T03:17:00;100164.92;;;2.71;58.57
37066;BME280;22981;43.080;25.550;2023-03-13T03:19:28;100170.70;;;2.71;58.52
37066;BME280;22981;43.080;25.550;2023-03-13T03:21:55;100169.64;;;2.64;58.58
37066;BME280;22981;43.080;25.550;2023-03-13T03:24:23;100163.78;;;2.56;58.66
37066;BME280;22981;43.080;25.550;2023-03-13T03:26:50;100166.88;;;2.51;58.78
37066;BME280;22981;43.080;25.550;2023-03-13T03:29:18;100166.05;;;2.51;58.79
37066;BME280;22981;43.080;25.550;2023-03-13T03:31:45;100170.13;;;2.45;58.82
37066;BME280;22981;43.080;25.550;2023-03-13T03:34:13;100176.20;;;2.42;58.90
37066;BME280;22981;43.080;25.550;2023-03-13T03:36:40;100182.48;;;2.41;58.86
37066;BME280;22981;43.080;25.550;2023-03-13T03:39:08;100183.75;;;2.37;58.87
37066;BME280;22981;43.080;25.550;2023-03-13T03:41:36;100195.44;;;2.34;58.91
37066;BME280;22981;43.080;25.550;2023-03-13T03:44:04;100196.92;;;2.33;58.91
37066;BME280;22981;43.080;25.550;2023-03-13T03:46:32;100193.07;;;2.27;58.95
37066;BME280;22981;43.080;25.550;2023-03-13T03:48:59;100209.50;;;2.21;59.14
37066;BME280;22981;43.080;25.550;2023-03-13T03:51:27;100209.78;;;2.18;59.18
37066;BME280;22981;43.080;25.550;2023-03-13T03:53:54;100211.05;;;2.14;59.28
37066;BME280;22981;43.080;25.550;2023-03-13T03:56:22;100219.19;;;2.16;59.30
37066;BME280;22981;43.080;25.550;2023-03-13T03:58:49;100224.13;;;2.15;59.40
37066;BME280;22981;43.080;25.550;2023-03-13T04:01:17;100231.07;;;2.16;59.48
37066;BME280;22981;43.080;25.550;2023-03-13T04:03:44;100230.08;;;2.17;59.50
37066;BME280;22981;43.080;25.550;2023-03-13T04:06:13;100238.01;;;2.17;59.58
37066;BME280;22981;43.080;25.550;2023-03-13T04:08:41;100241.84;;;2.19;59.58
37066;BME280;22981;43.080;25.550;2023-03-13T04:11:08;100239.83;;;2.17;59.57
37066;BME280;22981;43.080;25.550;2023-03-13T04:13:36;100247.47;;;2.06;59.64
37066;BME280;22981;43.080;25.550;2023-03-13T04:16:07;100254.34;;;1.89;59.92
37066;BME280;22981;43.080;25.550;2023-03-13T04:18:35;100246.70;;;1.86;60.19
37066;BME280;22981;43.080;25.550;2023-03-13T04:21:04;100252.80;;;1.87;60.19
37066;BME280;22981;43.080;25.550;2023-03-13T04:23:31;100248.23;;;1.89;60.21
37066;BME280;22981;43.080;25.550;2023-03-13T04:25:59;100261.06;;;1.88;60.26
37066;BME280;22981;43.080;25.550;2023-03-13T04:28:27;100259.41;;;1.87;60.26
37066;BME280;22981;43.080;25.550;2023-03-13T04:30:54;100264.57;;;1.79;60.41
37066;BME280;22981;43.080;25.550;2023-03-13T04:33:24;100267.80;;;1.72;60.63
37066;BME280;22981;43.080;25.550;2023-03-13T04:35:51;100276.61;;;1.77;60.68
37066;BME280;22981;43.080;25.550;2023-03-13T04:38:19;100272.00;;;1.79;60.68
37066;BME280;22981;43.080;25.550;2023-03-13T04:40:46;100279.30;;;1.81;60.67
37066;BME280;22981;43.080;25.550;2023-03-13T04:43:14;100279.45;;;1.70;60.72
37066;BME280;22981;43.080;25.550;2023-03-13T04:45:42;100285.04;;;1.57;61.01
37066;BME280;22981;43.080;25.550;2023-03-13T04:48:09;100287.74;;;1.61;61.13
37066;BME280;22981;43.080;25.550;2023-03-13T04:50:37;100280.04;;;1.64;61.09
37066;BME280;22981;43.080;25.550;2023-03-13T04:53:04;100288.94;;;1.63;61.06
37066;BME280;22981;43.080;25.550;2023-03-13T04:55:32;100288.30;;;1.65;61.00
37066;BME280;22981;43.080;25.550;2023-03-13T04:58:00;100291.27;;;1.66;60.97
37066;BME280;22981;43.080;25.550;2023-03-13T05:00:27;100298.58;;;1.68;61.00
37066;BME280;22981;43.080;25.550;2023-03-13T05:02:55;100301.77;;;1.71;61.00
37066;BME280;22981;43.080;25.550;2023-03-13T05:05:22;100307.05;;;1.71;60.95
37066;BME280;22981;43.080;25.550;2023-03-13T05:07:50;100310.52;;;1.62;60.96
37066;BME280;22981;43.080;25.550;2023-03-13T05:10:17;100313.95;;;1.59;61.14
37066;BME280;22981;43.080;25.550;2023-03-13T05:12:45;100323.25;;;1.63;61.17
37066;BME280;22981;43.080;25.550;2023-03-13T05:15:12;100322.67;;;1.69;61.12
37066;BME280;22981;43.080;25.550;2023-03-13T05:17:40;100320.19;;;1.67;61.08
37066;BME280;22981;43.080;25.550;2023-03-13T05:20:09;100328.63;;;1.71;61.08
37066;BME280;22981;43.080;25.550;2023-03-13T05:22:37;100330.32;;;1.72;60.98
37066;BME280;22981;43.080;25.550;2023-03-13T05:25:05;100323.72;;;1.72;61.12
37066;BME280;22981;43.080;25.550;2023-03-13T05:27:32;100322.53;;;1.80;61.04
37066;BME280;22981;43.080;25.550;2023-03-13T05:30:00;100326.58;;;1.88;60.92
37066;BME280;22981;43.080;25.550;2023-03-13T05:32:27;100320.53;;;1.92;60.89
37066;BME280;22981;43.080;25.550;2023-03-13T05:34:55;100321.64;;;1.99;60.88
37066;BME280;22981;43.080;25.550;2023-03-13T05:37:22;100321.32;;;2.12;60.79
37066;BME280;22981;43.080;25.550;2023-03-13T05:39:50;100313.62;;;2.28;60.60
37066;BME280;22981;43.080;25.550;2023-03-13T05:42:18;100312.84;;;2.45;60.38
37066;BME280;22981;43.080;25.550;2023-03-13T05:44:45;100322.37;;;2.56;60.20
37066;BME280;22981;43.080;25.550;2023-03-13T05:47:13;100314.47;;;2.70;60.04
37066;BME280;22981;43.080;25.550;2023-03-13T05:49:42;100319.41;;;2.83;59.73
37066;BME280;22981;43.080;25.550;2023-03-13T05:52:09;100320.94;;;2.89;59.65
37066;BME280;22981;43.080;25.550;2023-03-13T05:54:37;100313.63;;;3.01;59.60
37066;BME280;22981;43.080;25.550;2023-03-13T05:57:05;100325.75;;;3.08;59.42
37066;BME280;22981;43.080;25.550;2023-03-13T05:59:32;100327.36;;;3.18;59.38
37066;BME280;22981;43.080;25.550;2023-03-13T06:02:00;100334.51;;;3.40;58.97
37066;BME280;22981;43.080;25.550;2023-03-13T06:04:27;100335.52;;;3.61;58.59
37066;BME280;22981;43.080;25.550;2023-03-13T06:06:55;100339.23;;;3.72;58.30
37066;BME280;22981;43.080;25.550;2023-03-13T06:09:22;100342.07;;;3.74;58.20
37066;BME280;22981;43.080;25.550;2023-03-13T06:11:50;100346.70;;;3.76;58.21
37066;BME280;22981;43.080;25.550;2023-03-13T06:14:18;100346.44;;;3.84;58.01
37066;BME280;22981;43.080;25.550;2023-03-13T06:16:45;100348.79;;;3.87;57.85
37066;BME280;22981;43.080;25.550;2023-03-13T06:19:13;100341.40;;;3.94;57.71
37066;BME280;22981;43.080;25.550;2023-03-13T06:21:41;100343.61;;;4.03;57.58
37066;BME280;22981;43.080;25.550;2023-03-13T06:24:09;100338.52;;;4.14;57.36
37066;BME280;22981;43.080;25.550;2023-03-13T06:26:36;100344.55;;;4.20;57.14
37066;BME280;22981;43.080;25.550;2023-03-13T06:29:04;100338.10;;;4.26;57.12
37066;BME280;22981;43.080;25.550;2023-03-13T06:31:31;100344.63;;;4.40;56.88
37066;BME280;22981;43.080;25.550;2023-03-13T06:33:59;100337.56;;;4.53;56.61
37066;BME280;22981;43.080;25.550;2023-03-13T06:36:27;100338.14;;;4.69;56.40
37066;BME280;22981;43.080;25.550;2023-03-13T06:38:54;100339.69;;;4.92;56.12
37066;BME280;22981;43.080;25.550;2023-03-13T06:41:22;100339.23;;;5.09;55.85
37066;BME280;22981;43.080;25.550;2023-03-13T06:43:49;100338.94;;;5.20;55.55
37066;BME280;22981;43.080;25.550;2023-03-13T06:46:20;100341.61;;;5.28;55.39
37066;BME280;22981;43.080;25.550;2023-03-13T06:48:49;100344.42;;;5.31;55.10
37066;BME280;22981;43.080;25.550;2023-03-13T06:51:19;100344.78;;;5.36;55.01
37066;BME280;22981;43.080;25.550;2023-03-13T06:53:47;100338.63;;;5.51;55.01
37066;BME280;22981;43.080;25.550;2023-03-13T06:56:14;100341.48;;;5.70;54.70
37066;BME280;22981;43.080;25.550;2023-03-13T06:58:44;100336.31;;;5.81;54.30
37066;BME280;22981;43.080;25.550;2023-03-13T07:01:12;100334.47;;;5.86;54.03
37066;BME280;22981;43.080;25.550;2023-03-13T07:03:41;100342.13;;;5.89;53.74
37066;BME280;22981;43.080;25.550;2023-03-13T07:06:09;100335.00;;;5.97;53.69
37066;BME280;22981;43.080;25.550;2023-03-13T07:08:38;100333.97;;;6.15;53.56
37066;BME280;22981;43.080;25.550;2023-03-13T07:11:11;100334.44;;;6.31;53.23
37066;BME280;22981;43.080;25.550;2023-03-13T07:13:36;100331.06;;;6.45;52.66
37066;BME280;22981;43.080;25.550;2023-03-13T07:16:06;100325.50;;;6.63;52.29
37066;BME280;22981;43.080;25.550;2023-03-13T07:18:35;100321.73;;;6.84;51.85
37066;BME280;22981;43.080;25.550;2023-03-13T07:21:04;100323.30;;;7.01;51.46
37066;BME280;22981;43.080;25.550;2023-03-13T07:23:33;100323.58;;;7.11;51.03
37066;BME280;22981;43.080;25.550;2023-03-13T07:26:10;100311.17;;;7.26;50.54
37066;BME280;22981;43.080;25.550;2023-03-13T07:28:34;100313.05;;;7.40;50.39
37066;BME280;22981;43.080;25.550;2023-03-13T07:31:15;100310.58;;;7.58;50.21
37066;BME280;22981;43.080;25.550;2023-03-13T07:33:44;100305.23;;;7.81;49.85
37066;BME280;22981;43.080;25.550;2023-03-13T07:36:13;100300.81;;;8.07;49.54
37066;BME280;22981;43.080;25.550;2023-03-13T07:38:41;100302.52;;;8.33;49.22
37066;BME280;22981;43.080;25.550;2023-03-13T07:41:11;100295.80;;;8.52;48.62
37066;BME280;22981;43.080;25.550;2023-03-13T07:43:42;100292.93;;;8.68;48.23
37066;BME280;22981;43.080;25.550;2023-03-13T07:46:11;100285.91;;;8.82;47.65
37066;BME280;22981;43.080;25.550;2023-03-13T07:48:41;100283.17;;;8.86;47.04
37066;BME280;22981;43.080;25.550;2023-03-13T07:51:13;100268.52;;;8.97;46.66
37066;BME280;22981;43.080;25.550;2023-03-13T07:53:43;100271.13;;;9.12;46.36
37066;BME280;22981;43.080;25.550;2023-03-13T07:56:14;100270.36;;;9.28;45.94
37066;BME280;22981;43.080;25.550;2023-03-13T07:58:43;100267.06;;;9.26;44.93
37066;BME280;22981;43.080;25.550;2023-03-13T08:03:41;100272.33;;;9.41;44.59
37066;BME280;22981;43.080;25.550;2023-03-13T08:06:11;100271.78;;;9.63;44.65
37066;BME280;22981;43.080;25.550;2023-03-13T08:08:40;100273.80;;;9.83;44.29
37066;BME280;22981;43.080;25.550;2023-03-13T08:11:10;100270.00;;;9.98;43.95
37066;BME280;22981;43.080;25.550;2023-03-13T08:13:38;100273.09;;;10.02;43.57
37066;BME280;22981;43.080;25.550;2023-03-13T08:16:13;100268.10;;;10.10;43.58
37066;BME280;22981;43.080;25.550;2023-03-13T08:18:38;100268.34;;;10.25;43.35
37066;BME280;22981;43.080;25.550;2023-03-13T08:21:13;100267.66;;;10.34;42.96
37066;BME280;22981;43.080;25.550;2023-03-13T08:23:36;100264.52;;;10.48;42.82
37066;BME280;22981;43.080;25.550;2023-03-13T08:26:06;100256.16;;;10.64;42.51
37066;BME280;22981;43.080;25.550;2023-03-13T08:28:35;100261.16;;;10.87;42.44
37066;BME280;22981;43.080;25.550;2023-03-13T08:31:11;100253.30;;;11.10;41.98
37066;BME280;22981;43.080;25.550;2023-03-13T08:33:40;100252.69;;;11.34;41.62
37066;BME280;22981;43.080;25.550;2023-03-13T08:38:45;100256.42;;;11.53;40.32
37066;BME280;22981;43.080;25.550;2023-03-13T08:41:19;100253.84;;;11.49;40.21
37066;BME280;22981;43.080;25.550;2023-03-13T08:43:43;100248.67;;;11.54;40.02
37066;BME280;22981;43.080;25.550;2023-03-13T08:46:12;100248.57;;;11.78;40.37
37066;BME280;22981;43.080;25.550;2023-03-13T08:48:40;100242.77;;;12.08;40.06
37066;BME280;22981;43.080;25.550;2023-03-13T08:51:12;100240.00;;;12.34;39.66
37066;BME280;22981;43.080;25.550;2023-03-13T08:53:41;100238.96;;;12.58;39.46
37066;BME280;22981;43.080;25.550;2023-03-13T08:56:14;100241.56;;;12.77;39.17
37066;BME280;22981;43.080;25.550;2023-03-13T08:58:42;100231.26;;;12.90;39.08
37066;BME280;22981;43.080;25.550;2023-03-13T09:01:12;100233.34;;;13.20;39.23
37066;BME280;22981;43.080;25.550;2023-03-13T09:03:40;100235.09;;;13.48;38.61
37066;BME280;22981;43.080;25.550;2023-03-13T09:06:09;100234.20;;;13.70;37.90
37066;BME280;22981;43.080;25.550;2023-03-13T09:08:38;100228.02;;;13.88;37.46
37066;BME280;22981;43.080;25.550;2023-03-13T09:11:12;100234.08;;;13.93;37.13
37066;BME280;22981;43.080;25.550;2023-03-13T09:13:39;100223.93;;;14.13;37.22
37066;BME280;22981;43.080;25.550;2023-03-13T09:16:09;100214.41;;;14.29;36.92
37066;BME280;22981;43.080;25.550;2023-03-13T09:18:37;100211.72;;;14.47;36.84
37066;BME280;22981;43.080;25.550;2023-03-13T09:21:07;100210.91;;;14.56;36.85
37066;BME280;22981;43.080;25.550;2023-03-13T09:23:35;100211.86;;;14.62;36.87
37066;BME280;22981;43.080;25.550;2023-03-13T09:26:04;100207.64;;;14.75;35.71
37066;BME280;22981;43.080;25.550;2023-03-13T09:28:33;100201.05;;;14.71;35.55
37066;BME280;22981;43.080;25.550;2023-03-13T09:31:12;100198.86;;;14.80;35.05
37066;BME280;22981;43.080;25.550;2023-03-13T09:33:41;100194.38;;;14.94;34.39
37066;BME280;22981;43.080;25.550;2023-03-13T09:36:10;100190.13;;;14.96;33.74
37066;BME280;22981;43.080;25.550;2023-03-13T09:38:38;100194.70;;;15.07;33.12
37066;BME280;22981;43.080;25.550;2023-03-13T09:43:50;100177.01;;;15.11;32.85
37066;BME280;22981;43.080;25.550;2023-03-13T09:49:17;100180.23;;;15.43;32.60
37066;BME280;22981;43.080;25.550;2023-03-13T09:51:46;100172.32;;;15.51;31.92
37066;BME280;22981;43.080;25.550;2023-03-13T09:54:23;100176.58;;;15.49;31.98
37066;BME280;22981;43.080;25.550;2023-03-13T09:56:59;100176.45;;;15.65;32.27
37066;BME280;22981;43.080;25.550;2023-03-13T09:59:46;100171.72;;;15.84;31.99
37066;BME280;22981;43.080;25.550;2023-03-13T10:02:27;100174.88;;;15.93;31.69
37066;BME280;22981;43.080;25.550;2023-03-13T10:04:52;100169.47;;;15.93;31.56
37066;BME280;22981;43.080;25.550;2023-03-13T10:07:20;100170.81;;;16.05;30.94
37066;BME280;22981;43.080;25.550;2023-03-13T10:09:47;100163.16;;;16.13;30.87
37066;BME280;22981;43.080;25.550;2023-03-13T10:12:30;100163.41;;;16.26;30.31
37066;BME280;22981;43.080;25.550;2023-03-13T10:17:40;100150.59;;;16.19;30.47
37066;BME280;22981;43.080;25.550;2023-03-13T10:20:22;100142.92;;;16.42;30.43
37066;BME280;22981;43.080;25.550;2023-03-13T10:23:12;100143.45;;;16.56;29.94
37066;BME280;22981;43.080;25.550;2023-03-13T10:25:37;100138.72;;;16.63;29.80
37066;BME280;22981;43.080;25.550;2023-03-13T10:28:09;100138.38;;;16.59;30.00
37066;BME280;22981;43.080;25.550;2023-03-13T10:30:36;100130.27;;;16.59;29.85
37066;BME280;22981;43.080;25.550;2023-03-13T10:35:40;100121.15;;;16.63;30.39
37066;BME280;22981;43.080;25.550;2023-03-13T10:38:13;100112.42;;;16.58;30.56
37066;BME280;22981;43.080;25.550;2023-03-13T10:40:41;100121.54;;;16.55;30.81
37066;BME280;22981;43.080;25.550;2023-03-13T10:43:18;100109.83;;;16.49;30.01
37066;BME280;22981;43.080;25.550;2023-03-13T10:45:45;100114.89;;;16.45;30.03
37066;BME280;22981;43.080;25.550;2023-03-13T10:48:19;100100.98;;;16.39;29.54
37066;BME280;22981;43.080;25.550;2023-03-13T10:50:46;100101.53;;;16.24;28.95
37066;BME280;22981;43.080;25.550;2023-03-13T10:56:13;100091.48;;;15.94;28.90
37066;BME280;22981;43.080;25.550;2023-03-13T10:58:53;100090.09;;;15.80;28.82
37066;BME280;22981;43.080;25.550;2023-03-13T11:01:26;100087.08;;;15.76;29.35
37066;BME280;22981;43.080;25.550;2023-03-13T11:03:56;100086.54;;;15.76;29.60
37066;BME280;22981;43.080;25.550;2023-03-13T11:09:09;100075.41;;;16.01;31.22
37066;BME280;22981;43.080;25.550;2023-03-13T11:11:52;100072.53;;;16.20;30.91
37066;BME280;22981;43.080;25.550;2023-03-13T11:14:24;100071.22;;;16.22;31.01
37066;BME280;22981;43.080;25.550;2023-03-13T11:19:30;100052.17;;;16.29;31.86
37066;BME280;22981;43.080;25.550;2023-03-13T11:22:00;100052.79;;;16.34;32.05
37066;BME280;22981;43.080;25.550;2023-03-13T11:24:53;100052.53;;;16.35;32.22
37066;BME280;22981;43.080;25.550;2023-03-13T11:27:35;100048.88;;;16.41;32.07
37066;BME280;22981;43.080;25.550;2023-03-13T11:32:41;100043.72;;;16.57;31.54
37066;BME280;22981;43.080;25.550;2023-03-13T11:46:55;100016.08;;;17.02;30.96
37066;BME280;22981;43.080;25.550;2023-03-13T11:49:30;100020.95;;;17.03;30.70
37066;BME280;22981;43.080;25.550;2023-03-13T12:00:43;100008.44;;;16.97;31.16
37066;BME280;22981;43.080;25.550;2023-03-13T12:03:12;100011.26;;;17.05;31.02
37066;BME280;22981;43.080;25.550;2023-03-13T12:05:53;100009.22;;;17.14;30.77
37066;BME280;22981;43.080;25.550;2023-03-13T12:08:38;99996.90;;;17.23;30.45
37066;BME280;22981;43.080;25.550;2023-03-13T12:13:40;99996.90;;;17.23;30.54
37066;BME280;22981;43.080;25.550;2023-03-13T12:16:11;99987.10;;;17.20;30.21
37066;BME280;22981;43.080;25.550;2023-03-13T12:18:40;99984.94;;;17.19;30.22
37066;BME280;22981;43.080;25.550;2023-03-13T12:21:31;99983.27;;;17.38;30.00
37066;BME280;22981;43.080;25.550;2023-03-13T12:26:58;99980.11;;;17.43;29.81
37066;BME280;22981;43.080;25.550;2023-03-13T12:35:06;99981.31;;;17.55;29.26
37066;BME280;22981;43.080;25.550;2023-03-13T12:43:31;99973.51;;;17.59;28.99
37066;BME280;22981;43.080;25.550;2023-03-13T12:48:56;99969.54;;;17.66;28.98
37066;BME280;22981;43.080;25.550;2023-03-13T12:54:21;99970.11;;;17.46;28.81
37066;BME280;22981;43.080;25.550;2023-03-13T12:59:47;99976.01;;;17.41;29.07
37066;BME280;22981;43.080;25.550;2023-03-13T13:02:22;99979.95;;;17.55;28.79
37066;BME280;22981;43.080;25.550;2023-03-13T13:04:48;99975.25;;;17.45;28.00
37066;BME280;22981;43.080;25.550;2023-03-13T13:07:33;99972.80;;;17.44;28.43
37066;BME280;22981;43.080;25.550;2023-03-13T13:10:15;99969.62;;;17.49;28.12
37066;BME280;22981;43.080;25.550;2023-03-13T13:13:15;99967.49;;;17.51;27.89
37066;BME280;22981;43.080;25.550;2023-03-13T13:15:18;99962.67;;;17.56;27.68
37066;BME280;22981;43.080;25.550;2023-03-13T13:23:37;99948.73;;;17.69;27.64
37066;BME280;22981;43.080;25.550;2023-03-13T13:29:00;99943.09;;;17.73;27.62
37066;BME280;22981;43.080;25.550;2023-03-13T13:37:04;99949.38;;;17.33;28.08
37066;BME280;22981;43.080;25.550;2023-03-13T13:39:46;99945.59;;;17.31;27.77
37066;BME280;22981;43.080;25.550;2023-03-13T13:47:48;99936.94;;;17.10;27.78
37066;BME280;22981;43.080;25.550;2023-03-13T13:50:18;99935.47;;;16.83;27.80
37066;BME280;22981;43.080;25.550;2023-03-13T13:52:47;99933.02;;;16.64;27.92
37066;BME280;22981;43.080;25.550;2023-03-13T13:58:26;99930.72;;;16.37;28.38
37066;BME280;22981;43.080;25.550;2023-03-13T14:01:00;99930.84;;;16.27;28.34
37066;BME280;22981;43.080;25.550;2023-03-13T14:03:31;99933.97;;;16.22;28.30
37066;BME280;22981;43.080;25.550;2023-03-13T14:06:03;99935.62;;;16.06;28.24
37066;BME280;22981;43.080;25.550;2023-03-13T14:08:35;99928.53;;;15.88;28.40
37066;BME280;22981;43.080;25.550;2023-03-13T14:13:41;99923.34;;;15.56;28.63
37066;BME280;22981;43.080;25.550;2023-03-13T14:16:23;99920.20;;;15.47;28.62
37066;BME280;22981;43.080;25.550;2023-03-13T14:18:52;99917.16;;;15.43;28.82
37066;BME280;22981;43.080;25.550;2023-03-13T14:21:23;99928.67;;;15.39;28.77
37066;BME280;22981;43.080;25.550;2023-03-13T14:23:52;99924.72;;;15.30;28.67
37066;BME280;22981;43.080;25.550;2023-03-13T14:26:24;99926.19;;;15.23;28.80
37066;BME280;22981;43.080;25.550;2023-03-13T14:28:55;99925.50;;;15.16;28.71
37066;BME280;22981;43.080;25.550;2023-03-13T14:34:02;99928.07;;;14.96;28.73
37066;BME280;22981;43.080;25.550;2023-03-13T14:36:30;99922.47;;;14.86;28.88
37066;BME280;22981;43.080;25.550;2023-03-13T14:38:59;99926.38;;;14.81;28.92
37066;BME280;22981;43.080;25.550;2023-03-13T14:41:30;99924.46;;;14.79;28.93
37066;BME280;22981;43.080;25.550;2023-03-13T14:44:06;99930.20;;;14.71;29.13
37066;BME280;22981;43.080;25.550;2023-03-13T14:46:35;99926.27;;;14.64;29.18
37066;BME280;22981;43.080;25.550;2023-03-13T14:49:14;99933.18;;;14.60;29.07
37066;BME280;22981;43.080;25.550;2023-03-13T14:51:41;99928.84;;;14.47;29.17
37066;BME280;22981;43.080;25.550;2023-03-13T14:54:28;99926.49;;;14.39;29.46